sensor_id;sensor_type;location;lat;lon;timestamp;temperature;humidity
14741;DHT22;7462;53.530;9.414;2023-02-01T00:00:55;5.40;99.90
14741;DHT22;7462;53.530;9.414;2023-02-01T00:03:23;5.40;99.90
14741;DHT22;7462;53.530;9.414;2023-02-01T00:05:58;5.40;99.90
14741;DHT22;7462;53.530;9.414;2023-02-01T00:08:28;5.40;99.90
14741;DHT22;7462;53.530;9.414;2023-02-01T00:11:00;5.40;99.90
14741;DHT22;7462;53.530;9.414;2023-02-01T00:13:31;5.40;99.90
14741;DHT22;7462;53.530;9.414;2023-02-01T00:16:03;5.40;99.90
14741;DHT22;7462;53.530;9.414;2023-02-01T00:18:32;5.50;99.90
14741;DHT22;7462;53.530;9.414;2023-02-01T00:21:00;5.50;99.90
14741;DHT22;7462;53.530;9.414;2023-02-01T00:23:32;5.50;99.90
14741;DHT22;7462;53.530;9.414;2023-02-01T00:26:00;5.50;99.90
14741;DHT22;7462;53.530;9.414;2023-02-01T00:28:29;5.50;99.90
14741;DHT22;7462;53.530;9.414;2023-02-01T00:30:57;5.50;99.90
14741;DHT22;7462;53.530;9.414;2023-02-01T00:33:26;5.50;99.90
14741;DHT22;7462;53.530;9.414;2023-02-01T00:35:56;5.50;99.90
14741;DHT22;7462;53.530;9.414;2023-02-01T00:38:26;5.60;99.90
14741;DHT22;7462;53.530;9.414;2023-02-01T00:41:02;5.60;99.90
14741;DHT22;7462;53.530;9.414;2023-02-01T00:43:30;5.60;99.90
14741;DHT22;7462;53.530;9.414;2023-02-01T00:45:58;5.60;99.90
14741;DHT22;7462;53.530;9.414;2023-02-01T00:48:26;5.70;99.90
14741;DHT22;7462;53.530;9.414;2023-02-01T00:50:58;5.70;99.90
14741;DHT22;7462;53.530;9.414;2023-02-01T00:53:26;5.70;99.90
14741;DHT22;7462;53.530;9.414;2023-02-01T00:55:56;5.70;99.90
14741;DHT22;7462;53.530;9.414;2023-02-01T00:58:25;5.70;99.90
14741;DHT22;7462;53.530;9.414;2023-02-01T01:01:01;5.70;99.90
14741;DHT22;7462;53.530;9.414;2023-02-01T01:03:30;5.70;99.90
14741;DHT22;7462;53.530;9.414;2023-02-01T01:06:01;5.70;99.90
14741;DHT22;7462;53.530;9.414;2023-02-01T01:08:29;5.80;99.90
14741;DHT22;7462;53.530;9.414;2023-02-01T01:11:04;5.80;99.90
14741;DHT22;7462;53.530;9.414;2023-02-01T01:13:32;5.80;99.90
14741;DHT22;7462;53.530;9.414;2023-02-01T01:16:01;5.80;99.90
14741;DHT22;7462;53.530;9.414;2023-02-01T01:18:31;5.90;99.90
14741;DHT22;7462;53.530;9.414;2023-02-01T01:20:59;5.90;99.90
14741;DHT22;7462;53.530;9.414;2023-02-01T01:23:28;5.80;99.90
14741;DHT22;7462;53.530;9.414;2023-02-01T01:25:56;5.90;99.90
14741;DHT22;7462;53.530;9.414;2023-02-01T01:28:25;5.90;99.90
14741;DHT22;7462;53.530;9.414;2023-02-01T01:30:53;5.90;99.90
14741;DHT22;7462;53.530;9.414;2023-02-01T01:33:22;5.90;99.90
14741;DHT22;7462;53.530;9.414;2023-02-01T01:35:50;5.90;99.90
14741;DHT22;7462;53.530;9.414;2023-02-01T01:38:18;5.80;99.90
14741;DHT22;7462;53.530;9.414;2023-02-01T01:40:47;5.80;99.90
14741;DHT22;7462;53.530;9.414;2023-02-01T01:43:18;5.80;99.90
14741;DHT22;7462;53.530;9.414;2023-02-01T01:45:51;5.80;99.90
14741;DHT22;7462;53.530;9.414;2023-02-01T01:48:24;5.90;99.90
14741;DHT22;7462;53.530;9.414;2023-02-01T01:50:57;5.80;99.90
14741;DHT22;7462;53.530;9.414;2023-02-01T01:53:28;5.80;99.90
14741;DHT22;7462;53.530;9.414;2023-02-01T01:55:58;5.80;99.90
14741;DHT22;7462;53.530;9.414;2023-02-01T01:58:28;5.80;99.90
14741;DHT22;7462;53.530;9.414;2023-02-01T02:00:58;5.80;99.90
14741;DHT22;7462;53.530;9.414;2023-02-01T02:03:30;5.80;99.90
14741;DHT22;7462;53.530;9.414;2023-02-01T02:06:02;5.80;99.90
14741;DHT22;7462;53.530;9.414;2023-02-01T02:08:31;5.80;99.90
14741;DHT22;7462;53.530;9.414;2023-02-01T02:10:59;5.80;99.90
14741;DHT22;7462;53.530;9.414;2023-02-01T02:13:29;5.80;99.90
14741;DHT22;7462;53.530;9.414;2023-02-01T02:16:19;5.80;99.90
14741;DHT22;7462;53.530;9.414;2023-02-01T02:19:00;5.80;99.90
14741;DHT22;7462;53.530;9.414;2023-02-01T02:21:49;5.80;99.90
14741;DHT22;7462;53.530;9.414;2023-02-01T02:24:39;5.80;99.90
14741;DHT22;7462;53.530;9.414;2023-02-01T02:27:21;5.70;99.90
14741;DHT22;7462;53.530;9.414;2023-02-01T02:33:47;5.70;99.90
14741;DHT22;7462;53.530;9.414;2023-02-01T02:36:26;5.60;99.90
14741;DHT22;7462;53.530;9.414;2023-02-01T02:39:06;5.60;99.90
14741;DHT22;7462;53.530;9.414;2023-02-01T02:41:42;5.60;99.90
14741;DHT22;7462;53.530;9.414;2023-02-01T02:44:34;5.60;99.90
14741;DHT22;7462;53.530;9.414;2023-02-01T02:47:25;5.60;99.90
14741;DHT22;7462;53.530;9.414;2023-02-01T02:50:05;5.70;99.90
14741;DHT22;7462;53.530;9.414;2023-02-01T02:52:59;5.60;99.90
14741;DHT22;7462;53.530;9.414;2023-02-01T02:55:45;5.60;99.90
14741;DHT22;7462;53.530;9.414;2023-02-01T02:58:15;5.50;99.90
14741;DHT22;7462;53.530;9.414;2023-02-01T03:01:01;5.50;99.90
14741;DHT22;7462;53.530;9.414;2023-02-01T03:03:49;5.50;99.90
14741;DHT22;7462;53.530;9.414;2023-02-01T03:06:39;5.40;99.90
14741;DHT22;7462;53.530;9.414;2023-02-01T03:09:13;5.50;99.90
14741;DHT22;7462;53.530;9.414;2023-02-01T03:11:47;5.40;99.90
14741;DHT22;7462;53.530;9.414;2023-02-01T03:14:36;5.40;99.90
14741;DHT22;7462;53.530;9.414;2023-02-01T03:17:11;5.40;99.90
14741;DHT22;7462;53.530;9.414;2023-02-01T03:19:44;5.40;99.90
14741;DHT22;7462;53.530;9.414;2023-02-01T03:22:20;5.40;99.90
14741;DHT22;7462;53.530;9.414;2023-02-01T03:24:53;5.30;99.90
14741;DHT22;7462;53.530;9.414;2023-02-01T03:27:26;5.30;99.90
14741;DHT22;7462;53.530;9.414;2023-02-01T03:30:00;5.30;99.90
14741;DHT22;7462;53.530;9.414;2023-02-01T03:32:29;5.30;99.90
14741;DHT22;7462;53.530;9.414;2023-02-01T03:35:18;5.30;99.90
14741;DHT22;7462;53.530;9.414;2023-02-01T03:37:50;5.30;99.90
14741;DHT22;7462;53.530;9.414;2023-02-01T03:40:19;5.30;99.90
14741;DHT22;7462;53.530;9.414;2023-02-01T03:42:52;5.30;99.90
14741;DHT22;7462;53.530;9.414;2023-02-01T03:45:26;5.20;99.90
14741;DHT22;7462;53.530;9.414;2023-02-01T03:47:57;5.20;99.90
14741;DHT22;7462;53.530;9.414;2023-02-01T03:50:27;5.20;99.90
14741;DHT22;7462;53.530;9.414;2023-02-01T03:53:02;5.20;99.90
14741;DHT22;7462;53.530;9.414;2023-02-01T03:55:32;5.20;99.90
14741;DHT22;7462;53.530;9.414;2023-02-01T03:58:06;5.20;99.90
14741;DHT22;7462;53.530;9.414;2023-02-01T04:00:35;5.20;99.90
14741;DHT22;7462;53.530;9.414;2023-02-01T04:03:04;5.20;99.90
14741;DHT22;7462;53.530;9.414;2023-02-01T04:05:32;5.20;99.90
14741;DHT22;7462;53.530;9.414;2023-02-01T04:08:05;5.20;99.90
14741;DHT22;7462;53.530;9.414;2023-02-01T04:10:33;5.20;99.90
14741;DHT22;7462;53.530;9.414;2023-02-01T04:13:01;5.20;99.90
14741;DHT22;7462;53.530;9.414;2023-02-01T04:15:29;5.20;99.90
14741;DHT22;7462;53.530;9.414;2023-02-01T04:17:57;5.20;99.90
14741;DHT22;7462;53.530;9.414;2023-02-01T04:20:25;5.20;99.90
14741;DHT22;7462;53.530;9.414;2023-02-01T04:22:54;5.20;99.90
14741;DHT22;7462;53.530;9.414;2023-02-01T04:25:23;5.20;99.90
14741;DHT22;7462;53.530;9.414;2023-02-01T04:27:51;5.10;99.90
14741;DHT22;7462;53.530;9.414;2023-02-01T04:30:19;5.10;99.90
14741;DHT22;7462;53.530;9.414;2023-02-01T04:32:48;5.10;99.90
14741;DHT22;7462;53.530;9.414;2023-02-01T04:35:16;5.10;99.90
14741;DHT22;7462;53.530;9.414;2023-02-01T04:37:44;5.10;99.90
14741;DHT22;7462;53.530;9.414;2023-02-01T04:40:13;5.00;99.90
14741;DHT22;7462;53.530;9.414;2023-02-01T04:42:42;5.00;99.90
14741;DHT22;7462;53.530;9.414;2023-02-01T04:45:11;5.00;99.90
14741;DHT22;7462;53.530;9.414;2023-02-01T04:47:39;5.00;99.90
14741;DHT22;7462;53.530;9.414;2023-02-01T04:50:08;4.90;99.90
14741;DHT22;7462;53.530;9.414;2023-02-01T04:52:37;4.60;99.90
14741;DHT22;7462;53.530;9.414;2023-02-01T04:55:06;4.40;99.90
14741;DHT22;7462;53.530;9.414;2023-02-01T04:57:34;4.20;99.90
14741;DHT22;7462;53.530;9.414;2023-02-01T05:00:05;4.00;99.90
14741;DHT22;7462;53.530;9.414;2023-02-01T05:02:33;3.80;99.90
14741;DHT22;7462;53.530;9.414;2023-02-01T05:05:02;3.70;99.90
14741;DHT22;7462;53.530;9.414;2023-02-01T05:07:30;3.70;99.90
14741;DHT22;7462;53.530;9.414;2023-02-01T05:09:58;3.80;99.90
14741;DHT22;7462;53.530;9.414;2023-02-01T05:12:26;3.90;99.90
14741;DHT22;7462;53.530;9.414;2023-02-01T05:15:13;3.90;99.90
14741;DHT22;7462;53.530;9.414;2023-02-01T05:17:41;4.10;99.90
14741;DHT22;7462;53.530;9.414;2023-02-01T05:20:10;4.10;99.90
14741;DHT22;7462;53.530;9.414;2023-02-01T05:22:38;4.10;99.90
14741;DHT22;7462;53.530;9.414;2023-02-01T05:25:07;4.10;99.90
14741;DHT22;7462;53.530;9.414;2023-02-01T05:27:35;4.00;99.90
14741;DHT22;7462;53.530;9.414;2023-02-01T05:30:04;4.00;99.90
14741;DHT22;7462;53.530;9.414;2023-02-01T05:32:34;4.10;99.90
14741;DHT22;7462;53.530;9.414;2023-02-01T05:35:02;4.10;99.90
14741;DHT22;7462;53.530;9.414;2023-02-01T05:37:30;4.10;99.90
14741;DHT22;7462;53.530;9.414;2023-02-01T05:39:58;4.10;99.90
14741;DHT22;7462;53.530;9.414;2023-02-01T05:42:26;4.10;99.90
14741;DHT22;7462;53.530;9.414;2023-02-01T05:44:55;4.10;99.90
14741;DHT22;7462;53.530;9.414;2023-02-01T05:47:23;4.10;99.90
14741;DHT22;7462;53.530;9.414;2023-02-01T05:49:52;4.10;99.90
14741;DHT22;7462;53.530;9.414;2023-02-01T05:52:20;4.10;99.90
14741;DHT22;7462;53.530;9.414;2023-02-01T05:54:48;4.10;99.90
14741;DHT22;7462;53.530;9.414;2023-02-01T05:57:16;4.10;99.90
14741;DHT22;7462;53.530;9.414;2023-02-01T05:59:44;4.10;99.90
14741;DHT22;7462;53.530;9.414;2023-02-01T06:02:12;4.10;99.90
14741;DHT22;7462;53.530;9.414;2023-02-01T06:04:40;4.00;99.90
14741;DHT22;7462;53.530;9.414;2023-02-01T06:07:11;4.00;99.90
14741;DHT22;7462;53.530;9.414;2023-02-01T06:09:41;4.00;99.90
14741;DHT22;7462;53.530;9.414;2023-02-01T06:12:09;4.00;99.90
14741;DHT22;7462;53.530;9.414;2023-02-01T06:14:37;4.10;99.90
14741;DHT22;7462;53.530;9.414;2023-02-01T06:17:05;4.20;99.90
14741;DHT22;7462;53.530;9.414;2023-02-01T06:19:33;4.30;99.90
14741;DHT22;7462;53.530;9.414;2023-02-01T06:22:01;4.30;99.90
14741;DHT22;7462;53.530;9.414;2023-02-01T06:24:34;4.30;99.90
14741;DHT22;7462;53.530;9.414;2023-02-01T06:27:02;4.30;99.90
14741;DHT22;7462;53.530;9.414;2023-02-01T06:29:30;4.40;99.90
14741;DHT22;7462;53.530;9.414;2023-02-01T06:31:58;4.30;99.90
14741;DHT22;7462;53.530;9.414;2023-02-01T06:34:26;4.30;99.90
14741;DHT22;7462;53.530;9.414;2023-02-01T06:36:55;4.40;99.90
14741;DHT22;7462;53.530;9.414;2023-02-01T06:39:23;4.40;99.90
14741;DHT22;7462;53.530;9.414;2023-02-01T06:41:52;4.50;99.90
14741;DHT22;7462;53.530;9.414;2023-02-01T06:44:20;4.60;99.90
14741;DHT22;7462;53.530;9.414;2023-02-01T06:46:49;4.60;99.90
14741;DHT22;7462;53.530;9.414;2023-02-01T06:49:17;4.70;99.90
14741;DHT22;7462;53.530;9.414;2023-02-01T06:51:45;4.70;99.90
14741;DHT22;7462;53.530;9.414;2023-02-01T06:54:13;4.70;99.90
14741;DHT22;7462;53.530;9.414;2023-02-01T06:56:41;4.70;99.90
14741;DHT22;7462;53.530;9.414;2023-02-01T06:59:11;4.70;99.90
14741;DHT22;7462;53.530;9.414;2023-02-01T07:01:43;4.70;99.90
14741;DHT22;7462;53.530;9.414;2023-02-01T07:04:11;4.70;99.90
14741;DHT22;7462;53.530;9.414;2023-02-01T07:06:40;4.70;99.90
14741;DHT22;7462;53.530;9.414;2023-02-01T07:09:08;4.70;99.90
14741;DHT22;7462;53.530;9.414;2023-02-01T07:11:36;4.70;99.90
14741;DHT22;7462;53.530;9.414;2023-02-01T07:14:07;4.70;99.90
14741;DHT22;7462;53.530;9.414;2023-02-01T07:16:37;4.60;99.90
14741;DHT22;7462;53.530;9.414;2023-02-01T07:19:05;4.60;99.90
14741;DHT22;7462;53.530;9.414;2023-02-01T07:21:33;4.60;99.90
14741;DHT22;7462;53.530;9.414;2023-02-01T07:24:01;4.70;99.90
14741;DHT22;7462;53.530;9.414;2023-02-01T07:26:29;4.80;99.90
14741;DHT22;7462;53.530;9.414;2023-02-01T07:28:57;4.80;99.90
14741;DHT22;7462;53.530;9.414;2023-02-01T07:31:26;4.90;99.90
14741;DHT22;7462;53.530;9.414;2023-02-01T07:33:57;4.90;99.90
14741;DHT22;7462;53.530;9.414;2023-02-01T07:36:25;4.90;99.90
14741;DHT22;7462;53.530;9.414;2023-02-01T07:38:53;4.90;99.90
14741;DHT22;7462;53.530;9.414;2023-02-01T07:41:22;4.80;99.90
14741;DHT22;7462;53.530;9.414;2023-02-01T07:43:52;4.80;99.90
14741;DHT22;7462;53.530;9.414;2023-02-01T07:46:21;4.90;99.90
14741;DHT22;7462;53.530;9.414;2023-02-01T07:48:49;5.00;99.90
14741;DHT22;7462;53.530;9.414;2023-02-01T07:51:18;5.10;99.90
14741;DHT22;7462;53.530;9.414;2023-02-01T07:53:46;5.10;99.90
14741;DHT22;7462;53.530;9.414;2023-02-01T07:56:16;5.10;99.90
14741;DHT22;7462;53.530;9.414;2023-02-01T07:58:47;5.10;99.90
14741;DHT22;7462;53.530;9.414;2023-02-01T08:01:16;5.10;99.90
14741;DHT22;7462;53.530;9.414;2023-02-01T08:03:47;5.20;99.90
14741;DHT22;7462;53.530;9.414;2023-02-01T08:06:15;5.20;99.90
14741;DHT22;7462;53.530;9.414;2023-02-01T08:08:45;5.20;99.90
14741;DHT22;7462;53.530;9.414;2023-02-01T08:11:14;5.20;99.90
14741;DHT22;7462;53.530;9.414;2023-02-01T08:13:42;5.20;99.90
14741;DHT22;7462;53.530;9.414;2023-02-01T08:16:12;5.30;99.90
14741;DHT22;7462;53.530;9.414;2023-02-01T08:18:42;5.40;99.90
14741;DHT22;7462;53.530;9.414;2023-02-01T08:21:11;5.30;99.90
14741;DHT22;7462;53.530;9.414;2023-02-01T08:23:40;5.30;99.90
14741;DHT22;7462;53.530;9.414;2023-02-01T08:26:12;5.30;99.90
14741;DHT22;7462;53.530;9.414;2023-02-01T08:28:42;5.30;99.90
14741;DHT22;7462;53.530;9.414;2023-02-01T08:31:13;5.40;99.90
14741;DHT22;7462;53.530;9.414;2023-02-01T08:33:42;5.40;99.90
14741;DHT22;7462;53.530;9.414;2023-02-01T08:36:11;5.30;99.90
14741;DHT22;7462;53.530;9.414;2023-02-01T08:38:39;5.40;99.90
14741;DHT22;7462;53.530;9.414;2023-02-01T08:41:10;5.40;99.90
14741;DHT22;7462;53.530;9.414;2023-02-01T08:43:39;5.50;99.90
14741;DHT22;7462;53.530;9.414;2023-02-01T08:46:08;5.60;99.90
14741;DHT22;7462;53.530;9.414;2023-02-01T08:48:37;5.60;99.90
14741;DHT22;7462;53.530;9.414;2023-02-01T08:51:08;5.70;99.90
14741;DHT22;7462;53.530;9.414;2023-02-01T08:53:37;5.70;99.90
14741;DHT22;7462;53.530;9.414;2023-02-01T08:56:07;5.70;99.90
14741;DHT22;7462;53.530;9.414;2023-02-01T08:58:36;5.70;99.90
14741;DHT22;7462;53.530;9.414;2023-02-01T09:01:05;5.70;99.90
14741;DHT22;7462;53.530;9.414;2023-02-01T09:03:34;5.80;99.90
14741;DHT22;7462;53.530;9.414;2023-02-01T09:06:03;5.70;99.90
14741;DHT22;7462;53.530;9.414;2023-02-01T09:08:32;5.80;99.90
14741;DHT22;7462;53.530;9.414;2023-02-01T09:11:01;5.80;99.90
14741;DHT22;7462;53.530;9.414;2023-02-01T09:13:29;5.80;99.90
14741;DHT22;7462;53.530;9.414;2023-02-01T09:15:59;5.80;99.90
14741;DHT22;7462;53.530;9.414;2023-02-01T09:18:27;5.90;99.90
14741;DHT22;7462;53.530;9.414;2023-02-01T09:20:55;5.90;99.90
14741;DHT22;7462;53.530;9.414;2023-02-01T09:23:23;6.00;99.90
14741;DHT22;7462;53.530;9.414;2023-02-01T09:25:51;6.10;99.90
14741;DHT22;7462;53.530;9.414;2023-02-01T09:28:19;6.10;99.90
14741;DHT22;7462;53.530;9.414;2023-02-01T09:30:47;6.00;99.90
14741;DHT22;7462;53.530;9.414;2023-02-01T09:33:17;6.00;99.90
14741;DHT22;7462;53.530;9.414;2023-02-01T09:35:45;6.10;99.90
14741;DHT22;7462;53.530;9.414;2023-02-01T09:38:13;6.10;99.90
14741;DHT22;7462;53.530;9.414;2023-02-01T09:40:45;6.00;99.90
14741;DHT22;7462;53.530;9.414;2023-02-01T09:43:22;6.10;99.90
14741;DHT22;7462;53.530;9.414;2023-02-01T09:45:57;6.10;99.90
14741;DHT22;7462;53.530;9.414;2023-02-01T09:48:31;6.10;99.90
14741;DHT22;7462;53.530;9.414;2023-02-01T09:51:04;6.00;99.90
14741;DHT22;7462;53.530;9.414;2023-02-01T09:53:35;6.10;99.90
14741;DHT22;7462;53.530;9.414;2023-02-01T09:56:06;6.10;99.90
14741;DHT22;7462;53.530;9.414;2023-02-01T09:58:37;6.10;99.90
14741;DHT22;7462;53.530;9.414;2023-02-01T10:01:19;6.10;99.90
14741;DHT22;7462;53.530;9.414;2023-02-01T10:03:50;6.20;99.90
14741;DHT22;7462;53.530;9.414;2023-02-01T10:06:30;6.10;99.90
14741;DHT22;7462;53.530;9.414;2023-02-01T10:09:20;6.20;99.90
14741;DHT22;7462;53.530;9.414;2023-02-01T10:15:10;6.20;99.90
14741;DHT22;7462;53.530;9.414;2023-02-01T10:17:48;6.20;99.90
14741;DHT22;7462;53.530;9.414;2023-02-01T10:20:26;6.20;99.90
14741;DHT22;7462;53.530;9.414;2023-02-01T10:23:05;6.20;99.90
14741;DHT22;7462;53.530;9.414;2023-02-01T10:26:05;6.30;99.90
14741;DHT22;7462;53.530;9.414;2023-02-01T10:28:38;6.30;99.90
14741;DHT22;7462;53.530;9.414;2023-02-01T10:31:09;6.20;99.90
14741;DHT22;7462;53.530;9.414;2023-02-01T10:33:41;6.40;99.90
14741;DHT22;7462;53.530;9.414;2023-02-01T10:36:15;6.30;99.90
14741;DHT22;7462;53.530;9.414;2023-02-01T10:38:45;6.30;99.90
14741;DHT22;7462;53.530;9.414;2023-02-01T10:41:15;6.20;99.90
14741;DHT22;7462;53.530;9.414;2023-02-01T10:43:46;6.20;99.90
14741;DHT22;7462;53.530;9.414;2023-02-01T10:46:16;6.30;99.90
14741;DHT22;7462;53.530;9.414;2023-02-01T10:48:45;6.20;99.90
14741;DHT22;7462;53.530;9.414;2023-02-01T10:51:19;6.30;99.90
14741;DHT22;7462;53.530;9.414;2023-02-01T10:53:52;6.30;99.90
14741;DHT22;7462;53.530;9.414;2023-02-01T10:56:23;6.30;99.90
14741;DHT22;7462;53.530;9.414;2023-02-01T10:58:51;6.30;99.90
14741;DHT22;7462;53.530;9.414;2023-02-01T11:01:21;6.30;99.90
14741;DHT22;7462;53.530;9.414;2023-02-01T11:03:53;6.40;99.90
14741;DHT22;7462;53.530;9.414;2023-02-01T11:06:27;6.40;99.90
14741;DHT22;7462;53.530;9.414;2023-02-01T11:08:57;6.40;99.90
14741;DHT22;7462;53.530;9.414;2023-02-01T11:11:25;6.40;99.90
14741;DHT22;7462;53.530;9.414;2023-02-01T11:13:56;6.40;99.90
14741;DHT22;7462;53.530;9.414;2023-02-01T11:16:31;6.30;99.90
14741;DHT22;7462;53.530;9.414;2023-02-01T11:19:01;6.30;99.90
14741;DHT22;7462;53.530;9.414;2023-02-01T11:21:30;6.30;99.90
14741;DHT22;7462;53.530;9.414;2023-02-01T11:24:02;6.30;99.90
14741;DHT22;7462;53.530;9.414;2023-02-01T11:26:31;6.30;99.90
14741;DHT22;7462;53.530;9.414;2023-02-01T11:29:03;6.20;99.90
14741;DHT22;7462;53.530;9.414;2023-02-01T11:31:33;6.30;99.90
14741;DHT22;7462;53.530;9.414;2023-02-01T11:34:06;6.20;99.90
14741;DHT22;7462;53.530;9.414;2023-02-01T11:36:37;6.20;99.90
14741;DHT22;7462;53.530;9.414;2023-02-01T11:39:24;6.30;99.90
14741;DHT22;7462;53.530;9.414;2023-02-01T11:41:59;6.20;99.90
14741;DHT22;7462;53.530;9.414;2023-02-01T11:44:32;6.20;99.90
14741;DHT22;7462;53.530;9.414;2023-02-01T11:47:21;6.10;99.90
14741;DHT22;7462;53.530;9.414;2023-02-01T11:49:50;6.10;99.90
14741;DHT22;7462;53.530;9.414;2023-02-01T11:52:41;6.00;99.90
14741;DHT22;7462;53.530;9.414;2023-02-01T11:55:23;6.00;99.90
14741;DHT22;7462;53.530;9.414;2023-02-01T11:58:03;5.90;99.90
14741;DHT22;7462;53.530;9.414;2023-02-01T12:00:49;5.90;99.90
14741;DHT22;7462;53.530;9.414;2023-02-01T12:06:47;5.80;99.90
14741;DHT22;7462;53.530;9.414;2023-02-01T12:09:35;5.70;99.90
14741;DHT22;7462;53.530;9.414;2023-02-01T12:12:14;5.60;99.90
14741;DHT22;7462;53.530;9.414;2023-02-01T12:15:03;5.50;99.90
14741;DHT22;7462;53.530;9.414;2023-02-01T12:18:10;5.40;99.90
14741;DHT22;7462;53.530;9.414;2023-02-01T12:21:04;5.30;99.90
14741;DHT22;7462;53.530;9.414;2023-02-01T12:23:46;5.20;99.90
14741;DHT22;7462;53.530;9.414;2023-02-01T12:26:45;5.10;99.90
14741;DHT22;7462;53.530;9.414;2023-02-01T12:32:25;5.00;99.90
14741;DHT22;7462;53.530;9.414;2023-02-01T12:35:25;5.00;99.90
14741;DHT22;7462;53.530;9.414;2023-02-01T12:38:11;4.90;99.90
14741;DHT22;7462;53.530;9.414;2023-02-01T12:40:54;4.80;99.90
14741;DHT22;7462;53.530;9.414;2023-02-01T12:43:37;4.90;99.90
14741;DHT22;7462;53.530;9.414;2023-02-01T12:46:09;4.80;99.90
14741;DHT22;7462;53.530;9.414;2023-02-01T12:48:46;4.80;99.90
14741;DHT22;7462;53.530;9.414;2023-02-01T12:51:18;4.80;99.90
14741;DHT22;7462;53.530;9.414;2023-02-01T12:53:51;4.80;99.90
14741;DHT22;7462;53.530;9.414;2023-02-01T12:56:25;4.90;99.90
14741;DHT22;7462;53.530;9.414;2023-02-01T12:58:58;5.00;99.90
14741;DHT22;7462;53.530;9.414;2023-02-01T13:01:30;5.10;99.90
14741;DHT22;7462;53.530;9.414;2023-02-01T13:04:04;5.10;99.90
14741;DHT22;7462;53.530;9.414;2023-02-01T13:06:39;5.20;99.90
14741;DHT22;7462;53.530;9.414;2023-02-01T13:09:18;5.10;99.90
14741;DHT22;7462;53.530;9.414;2023-02-01T13:11:49;5.10;99.90
14741;DHT22;7462;53.530;9.414;2023-02-01T13:14:27;5.10;99.90
14741;DHT22;7462;53.530;9.414;2023-02-01T13:17:00;5.10;99.90
14741;DHT22;7462;53.530;9.414;2023-02-01T13:19:34;5.00;99.90
14741;DHT22;7462;53.530;9.414;2023-02-01T13:22:07;4.90;99.90
14741;DHT22;7462;53.530;9.414;2023-02-01T13:24:40;5.00;99.90
14741;DHT22;7462;53.530;9.414;2023-02-01T13:27:12;5.10;99.90
14741;DHT22;7462;53.530;9.414;2023-02-01T13:29:50;5.20;99.90
14741;DHT22;7462;53.530;9.414;2023-02-01T13:32:43;5.20;99.90
14741;DHT22;7462;53.530;9.414;2023-02-01T13:41:53;5.50;99.90
14741;DHT22;7462;53.530;9.414;2023-02-01T13:44:27;5.60;99.90
14741;DHT22;7462;53.530;9.414;2023-02-01T13:46:59;5.60;99.90
14741;DHT22;7462;53.530;9.414;2023-02-01T13:49:31;5.60;99.90
14741;DHT22;7462;53.530;9.414;2023-02-01T13:52:00;5.60;99.90
14741;DHT22;7462;53.530;9.414;2023-02-01T13:54:30;5.70;99.90
14741;DHT22;7462;53.530;9.414;2023-02-01T13:56:59;5.70;99.90
14741;DHT22;7462;53.530;9.414;2023-02-01T13:59:49;5.70;99.90
14741;DHT22;7462;53.530;9.414;2023-02-01T14:02:47;5.70;99.90
14741;DHT22;7462;53.530;9.414;2023-02-01T14:08:44;5.70;99.90
14741;DHT22;7462;53.530;9.414;2023-02-01T14:11:38;5.70;99.90
14741;DHT22;7462;53.530;9.414;2023-02-01T14:17:34;5.50;99.90
14741;DHT22;7462;53.530;9.414;2023-02-01T14:23:12;4.80;99.90
14741;DHT22;7462;53.530;9.414;2023-02-01T14:25:43;4.70;99.90
14741;DHT22;7462;53.530;9.414;2023-02-01T14:28:19;4.70;99.90
14741;DHT22;7462;53.530;9.414;2023-02-01T14:30:50;4.60;99.90
14741;DHT22;7462;53.530;9.414;2023-02-01T14:33:21;4.60;99.90
14741;DHT22;7462;53.530;9.414;2023-02-01T14:36:05;4.50;99.90
14741;DHT22;7462;53.530;9.414;2023-02-01T14:38:37;4.50;99.90
14741;DHT22;7462;53.530;9.414;2023-02-01T14:41:25;4.50;99.90
14741;DHT22;7462;53.530;9.414;2023-02-01T14:44:22;4.50;99.90
14741;DHT22;7462;53.530;9.414;2023-02-01T14:50:17;4.50;99.90
14741;DHT22;7462;53.530;9.414;2023-02-01T14:52:51;4.50;99.90
14741;DHT22;7462;53.530;9.414;2023-02-01T14:55:40;4.50;99.90
14741;DHT22;7462;53.530;9.414;2023-02-01T14:58:18;4.50;99.90
14741;DHT22;7462;53.530;9.414;2023-02-01T15:00:50;4.50;99.90
14741;DHT22;7462;53.530;9.414;2023-02-01T15:03:30;4.50;99.90
14741;DHT22;7462;53.530;9.414;2023-02-01T15:06:01;4.50;99.90
14741;DHT22;7462;53.530;9.414;2023-02-01T15:08:35;4.50;99.90
14741;DHT22;7462;53.530;9.414;2023-02-01T15:11:08;4.50;99.90
14741;DHT22;7462;53.530;9.414;2023-02-01T15:13:39;4.50;99.90
14741;DHT22;7462;53.530;9.414;2023-02-01T15:16:10;4.60;99.90
14741;DHT22;7462;53.530;9.414;2023-02-01T15:18:40;4.50;99.90
14741;DHT22;7462;53.530;9.414;2023-02-01T15:21:17;4.50;99.90
14741;DHT22;7462;53.530;9.414;2023-02-01T15:24:10;4.50;99.90
14741;DHT22;7462;53.530;9.414;2023-02-01T15:26:40;4.40;99.90
14741;DHT22;7462;53.530;9.414;2023-02-01T15:29:12;4.40;99.90
14741;DHT22;7462;53.530;9.414;2023-02-01T15:31:43;4.40;99.90
14741;DHT22;7462;53.530;9.414;2023-02-01T15:34:12;4.40;99.90
14741;DHT22;7462;53.530;9.414;2023-02-01T15:36:41;4.40;99.90
14741;DHT22;7462;53.530;9.414;2023-02-01T15:39:27;4.40;99.90
14741;DHT22;7462;53.530;9.414;2023-02-01T15:42:01;4.40;99.90
14741;DHT22;7462;53.530;9.414;2023-02-01T15:44:39;4.40;99.90
14741;DHT22;7462;53.530;9.414;2023-02-01T15:47:13;4.50;99.90
14741;DHT22;7462;53.530;9.414;2023-02-01T15:49:45;4.50;99.90
14741;DHT22;7462;53.530;9.414;2023-02-01T15:52:22;4.50;99.90
14741;DHT22;7462;53.530;9.414;2023-02-01T15:54:53;4.50;99.90
14741;DHT22;7462;53.530;9.414;2023-02-01T15:57:26;4.50;99.90
14741;DHT22;7462;53.530;9.414;2023-02-01T15:59:59;4.60;99.90
14741;DHT22;7462;53.530;9.414;2023-02-01T16:02:41;4.60;99.90
14741;DHT22;7462;53.530;9.414;2023-02-01T16:05:29;4.70;99.90
14741;DHT22;7462;53.530;9.414;2023-02-01T16:08:01;4.70;99.90
14741;DHT22;7462;53.530;9.414;2023-02-01T16:10:32;4.80;99.90
14741;DHT22;7462;53.530;9.414;2023-02-01T16:13:07;4.90;99.90
14741;DHT22;7462;53.530;9.414;2023-02-01T16:15:35;4.90;99.90
14741;DHT22;7462;53.530;9.414;2023-02-01T16:18:03;4.90;99.90
14741;DHT22;7462;53.530;9.414;2023-02-01T16:20:31;4.90;99.90
14741;DHT22;7462;53.530;9.414;2023-02-01T16:23:02;4.90;99.90
14741;DHT22;7462;53.530;9.414;2023-02-01T16:25:30;4.90;99.90
14741;DHT22;7462;53.530;9.414;2023-02-01T16:27:58;4.90;99.90
14741;DHT22;7462;53.530;9.414;2023-02-01T16:30:28;4.90;99.90
14741;DHT22;7462;53.530;9.414;2023-02-01T16:32:58;4.90;99.90
14741;DHT22;7462;53.530;9.414;2023-02-01T16:35:28;4.90;99.90
14741;DHT22;7462;53.530;9.414;2023-02-01T16:37:58;4.80;99.90
14741;DHT22;7462;53.530;9.414;2023-02-01T16:40:26;4.80;99.90
14741;DHT22;7462;53.530;9.414;2023-02-01T16:42:55;4.80;99.90
14741;DHT22;7462;53.530;9.414;2023-02-01T16:45:23;4.80;99.90
14741;DHT22;7462;53.530;9.414;2023-02-01T16:47:54;4.70;99.90
14741;DHT22;7462;53.530;9.414;2023-02-01T16:50:25;4.70;99.90
14741;DHT22;7462;53.530;9.414;2023-02-01T16:52:54;4.70;99.90
14741;DHT22;7462;53.530;9.414;2023-02-01T16:55:22;4.80;99.90
14741;DHT22;7462;53.530;9.414;2023-02-01T16:57:51;4.80;99.90
14741;DHT22;7462;53.530;9.414;2023-02-01T17:00:19;4.80;99.90
14741;DHT22;7462;53.530;9.414;2023-02-01T17:02:52;4.90;99.90
14741;DHT22;7462;53.530;9.414;2023-02-01T17:05:20;5.00;99.90
14741;DHT22;7462;53.530;9.414;2023-02-01T17:07:50;5.00;99.90
14741;DHT22;7462;53.530;9.414;2023-02-01T17:10:23;4.90;99.90